createdAt,value
2017-07-26T00:02:18.336Z,93312.25
2017-07-26T00:04:46.123Z,93306.51
2017-07-26T00:07:13.828Z,93303.12
2017-07-26T00:09:41.586Z,93300.24
2017-07-26T00:12:09.269Z,93297.11
2017-07-26T00:14:36.983Z,93302.58
2017-07-26T00:17:04.740Z,93293.44
2017-07-26T00:19:32.452Z,93290.06
2017-07-26T00:22:00.160Z,93297.11
2017-07-26T00:24:27.898Z,93290.97
2017-07-26T00:26:58.382Z,93282.22
2017-07-26T00:29:26.197Z,93282.09
2017-07-26T00:34:33.927Z,93282.61
2017-07-26T00:37:01.643Z,93283.89
2017-07-26T00:39:29.344Z,93277.91
2017-07-26T00:41:57.094Z,93284.03
2017-07-26T00:44:24.847Z,93282.46
2017-07-26T00:46:52.617Z,93274.62
2017-07-26T00:49:20.318Z,93273.97
2017-07-26T00:51:48.037Z,93266.94
2017-07-26T00:54:15.917Z,93264.84
2017-07-26T00:56:43.676Z,93274.11
2017-07-26T00:59:11.368Z,93269.53
2017-07-26T01:01:39.157Z,93267.06
2017-07-26T01:04:06.853Z,93258.69
2017-07-26T01:06:34.581Z,93258.06
2017-07-26T01:09:02.405Z,93254.13
2017-07-26T01:11:30.140Z,93257.66
2017-07-26T01:13:57.829Z,93247.20
2017-07-26T01:16:25.657Z,93242.77
2017-07-26T01:18:53.343Z,93241.09
2017-07-26T01:21:21.095Z,93243.70
2017-07-26T01:23:48.909Z,93242.25
2017-07-26T01:26:16.623Z,93234.67
2017-07-26T01:28:44.383Z,93238.09
2017-07-26T01:31:12.383Z,93239.13
2017-07-26T01:33:40.085Z,93227.50
2017-07-26T01:36:07.881Z,93229.86
2017-07-26T01:38:35.561Z,93220.86
2017-07-26T01:41:03.310Z,93221.50
2017-07-26T01:43:31.091Z,93217.96
2017-07-26T01:45:58.819Z,93217.07
2017-07-26T01:48:26.532Z,93217.98
2017-07-26T01:50:54.311Z,93213.12
2017-07-26T01:53:22.087Z,93209.09
2017-07-26T01:55:49.844Z,93205.56
2017-07-26T01:58:17.567Z,93200.88
2017-07-26T02:00:45.340Z,93201.66
2017-07-26T02:03:13.042Z,93201.50
2017-07-26T02:05:40.755Z,93195.50
2017-07-26T02:08:08.625Z,93197.60
2017-07-26T02:10:36.340Z,93196.02
2017-07-26T02:13:04.108Z,93194.28
2017-07-26T02:15:31.909Z,93189.07
2017-07-26T02:17:59.600Z,93192.07
2017-07-26T02:20:27.317Z,93190.08
2017-07-26T02:22:55.058Z,93181.89
2017-07-26T02:25:22.737Z,93191.03
2017-07-26T02:27:50.468Z,93195.20
2017-07-26T02:30:18.230Z,93199.48
2017-07-26T02:32:45.936Z,93194.41
2017-07-26T02:35:13.684Z,93193.22
2017-07-26T02:37:41.469Z,93190.06
2017-07-26T02:40:09.286Z,93189.23
2017-07-26T02:42:37.084Z,93178.69
2017-07-26T02:45:04.823Z,93187.69
2017-07-26T02:47:32.596Z,93184.97
2017-07-26T02:50:00.376Z,93176.74
2017-07-26T02:52:28.184Z,93171.66
2017-07-26T02:54:55.951Z,93168.03
2017-07-26T02:57:23.725Z,93162.30
2017-07-26T02:59:51.516Z,93164.24
2017-07-26T03:02:19.208Z,93155.67
2017-07-26T03:04:47.008Z,93156.94
2017-07-26T03:07:14.737Z,93154.84
2017-07-26T03:09:42.505Z,93159.91
2017-07-26T03:12:10.237Z,93161.06
2017-07-26T03:14:37.935Z,93164.48
2017-07-26T03:17:05.727Z,93161.86
2017-07-26T03:19:33.599Z,93162.21
2017-07-26T03:22:01.387Z,93155.19
2017-07-26T03:24:29.121Z,93162.08
2017-07-26T03:26:56.827Z,93165.31
2017-07-26T03:29:24.546Z,93164.18
2017-07-26T03:31:52.226Z,93159.77
2017-07-26T03:34:20.003Z,93160.16
2017-07-26T03:36:47.710Z,93155.71
2017-07-26T03:39:15.444Z,93155.14
2017-07-26T03:41:43.144Z,93159.23
2017-07-26T03:44:10.906Z,93151.78
2017-07-26T03:46:38.616Z,93146.82
2017-07-26T03:49:06.354Z,93139.53
2017-07-26T03:51:34.138Z,93141.91
2017-07-26T03:54:01.842Z,93137.85
2017-07-26T03:56:29.556Z,93134.85
2017-07-26T03:58:57.311Z,93134.46
2017-07-26T04:01:25.041Z,93141.23
2017-07-26T04:03:52.789Z,93138.52
2017-07-26T04:06:20.508Z,93130.66
2017-07-26T04:08:48.287Z,93130.50
2017-07-26T04:11:15.998Z,93135.75
2017-07-26T04:13:43.867Z,93135.12
2017-07-26T04:16:11.558Z,93138.77
2017-07-26T04:18:39.285Z,93138.37
2017-07-26T04:21:06.973Z,93140.98
2017-07-26T04:23:34.700Z,93137.86
2017-07-26T04:26:02.373Z,93141.85
2017-07-26T04:28:30.253Z,93137.04
2017-07-26T04:30:57.968Z,93140.59
2017-07-26T04:33:25.751Z,93145.53
2017-07-26T04:35:53.476Z,93147.75
2017-07-26T04:38:21.250Z,93145.95
2017-07-26T04:40:49.041Z,93145.98
2017-07-26T04:43:16.751Z,93149.10
2017-07-26T04:45:44.452Z,93155.63
2017-07-26T04:48:12.250Z,93155.63
2017-07-26T04:50:39.945Z,93163.05
2017-07-26T04:53:08.463Z,93166.20
2017-07-26T04:55:36.208Z,93172.43
2017-07-26T04:58:04.752Z,93170.74
2017-07-26T05:00:32.484Z,93171.94
2017-07-26T05:03:00.258Z,93177.14
2017-07-26T05:05:27.970Z,93177.30
2017-07-26T05:07:55.703Z,93182.38
2017-07-26T05:10:23.476Z,93189.82
2017-07-26T05:12:51.176Z,93188.91
2017-07-26T05:15:18.963Z,93188.27
2017-07-26T05:17:46.721Z,93185.13
2017-07-26T05:20:14.445Z,93199.61
2017-07-26T05:22:42.241Z,93198.95
2017-07-26T05:25:09.971Z,93205.09
2017-07-26T05:27:37.728Z,93202.22
2017-07-26T05:30:05.431Z,93203.27
2017-07-26T05:32:33.154Z,93206.78
2017-07-26T05:35:00.927Z,93218.13
2017-07-26T05:37:28.639Z,93221.12
2017-07-26T05:39:56.432Z,93221.91
2017-07-26T05:42:24.198Z,93215.38
2017-07-26T05:44:51.901Z,93212.90
2017-07-26T05:47:20.245Z,93209.13
2017-07-26T05:49:47.996Z,93212.63
2017-07-26T05:52:15.738Z,93210.81
2017-07-26T05:54:43.453Z,93209.48
2017-07-26T05:57:11.141Z,93209.00
2017-07-26T05:59:38.866Z,93221.50
2017-07-26T06:02:06.641Z,93227.64
2017-07-26T06:04:34.343Z,93226.59
2017-07-26T06:07:02.116Z,93225.17
2017-07-26T06:09:29.811Z,93229.31
2017-07-26T06:11:57.553Z,93230.38
2017-07-26T06:14:25.284Z,93227.77
2017-07-26T06:16:53.110Z,93228.95
2017-07-26T06:19:20.801Z,93227.39
2017-07-26T06:21:48.478Z,93233.42
2017-07-26T06:24:16.291Z,93230.16
2017-07-26T06:26:44.042Z,93231.33
2017-07-26T06:29:11.774Z,93230.03
2017-07-26T06:31:39.516Z,93231.63
2017-07-26T06:34:07.352Z,93228.62
2017-07-26T06:36:35.093Z,93229.78
2017-07-26T06:39:02.860Z,93232.28
2017-07-26T06:41:30.569Z,93233.47
2017-07-26T06:43:58.371Z,93220.70
2017-07-26T06:46:27.360Z,93221.51
2017-07-26T06:48:55.084Z,93208.41
2017-07-26T06:51:22.781Z,93212.16
2017-07-26T06:53:50.567Z,93217.69
2017-07-26T06:56:18.280Z,93226.05
2017-07-26T06:58:46.050Z,93224.32
2017-07-26T07:01:13.845Z,93224.84
2017-07-26T07:03:41.594Z,93227.13
2017-07-26T07:06:09.401Z,93222.80
2017-07-26T07:08:37.213Z,93225.00
2017-07-26T07:11:04.933Z,93223.66
2017-07-26T07:13:32.805Z,93215.78
2017-07-26T07:16:00.511Z,93220.52
2017-07-26T07:18:28.221Z,93221.70
2017-07-26T07:20:56.063Z,93213.55
2017-07-26T07:23:23.860Z,93221.80
2017-07-26T07:25:51.585Z,93217.22
2017-07-26T07:28:19.335Z,93220.91
2017-07-26T07:30:47.046Z,93219.69
2017-07-26T07:33:14.800Z,93220.24
2017-07-26T07:35:42.589Z,93215.71
2017-07-26T07:38:10.339Z,93214.43
2017-07-26T07:40:38.117Z,93217.23
2017-07-26T07:43:05.856Z,93217.20
2017-07-26T07:45:33.681Z,93208.33
2017-07-26T07:48:01.430Z,93208.66
2017-07-26T07:50:29.212Z,93220.23
2017-07-26T07:52:56.913Z,93225.22
2017-07-26T07:55:24.618Z,93225.56
2017-07-26T07:57:52.380Z,93232.73
2017-07-26T08:00:20.173Z,93231.57
2017-07-26T08:02:47.894Z,93224.59
2017-07-26T08:05:15.693Z,93227.70
2017-07-26T08:07:44.064Z,93240.24
2017-07-26T08:10:11.777Z,93246.88
2017-07-26T08:12:39.533Z,93235.02
2017-07-26T08:15:07.278Z,93245.12
2017-07-26T08:17:35.940Z,93241.85
2017-07-26T08:20:03.783Z,93245.12
2017-07-26T08:22:31.489Z,93246.66
2017-07-26T08:24:59.326Z,93245.38
2017-07-26T08:27:27.123Z,93241.84
2017-07-26T08:29:54.836Z,93239.00
2017-07-26T08:32:22.591Z,93236.12
2017-07-26T08:34:50.373Z,93234.80
2017-07-26T08:37:18.147Z,93228.11
2017-07-26T08:39:45.942Z,93231.92
2017-07-26T08:42:13.715Z,93234.67
2017-07-26T08:44:41.476Z,93236.08
2017-07-26T08:47:09.958Z,93227.79
2017-07-26T08:49:37.792Z,93222.21
2017-07-26T08:52:05.524Z,93218.22
2017-07-26T08:54:33.222Z,93206.73
2017-07-26T08:57:01.012Z,93205.03
2017-07-26T08:59:28.718Z,93202.82
2017-07-26T09:01:56.464Z,93200.08
2017-07-26T09:04:24.167Z,93196.46
2017-07-26T09:06:51.980Z,93202.56
2017-07-26T09:09:20.305Z,93204.69
2017-07-26T09:11:48.017Z,93206.66
2017-07-26T09:14:15.773Z,93206.77
2017-07-26T09:16:43.491Z,93208.68
2017-07-26T09:19:11.226Z,93220.05
2017-07-26T09:21:38.932Z,93218.62
2017-07-26T09:24:06.738Z,93216.20
2017-07-26T09:26:34.674Z,93220.23
2017-07-26T09:29:02.451Z,93221.64
2017-07-26T09:31:30.212Z,93215.97
2017-07-26T09:33:58.006Z,93218.56
2017-07-26T09:36:26.049Z,93210.37
2017-07-26T09:38:53.860Z,93211.80
2017-07-26T09:41:22.718Z,93200.88
2017-07-26T09:43:50.448Z,93206.23
2017-07-26T09:46:18.174Z,93205.79
2017-07-26T09:48:46.892Z,93204.95
2017-07-26T09:51:15.054Z,93208.00
2017-07-26T09:53:43.163Z,93208.40
2017-07-26T09:56:10.916Z,93211.21
2017-07-26T09:58:38.748Z,93209.36
2017-07-26T10:01:06.544Z,93209.51
2017-07-26T10:03:34.313Z,93216.55
2017-07-26T10:06:03.147Z,93206.42
2017-07-26T10:08:32.055Z,93218.56
2017-07-26T10:10:59.854Z,93204.70
2017-07-26T10:13:27.568Z,93213.27
2017-07-26T10:15:55.332Z,93216.79
2017-07-26T10:18:23.098Z,93216.08
2017-07-26T10:20:50.849Z,93217.18
2017-07-26T10:23:18.646Z,93230.22
2017-07-26T10:25:46.716Z,93226.50
2017-07-26T10:28:14.713Z,93232.37
2017-07-26T10:30:42.557Z,93234.06
2017-07-26T10:33:10.281Z,93230.64
2017-07-26T10:35:37.988Z,93236.33
2017-07-26T10:38:05.756Z,93236.19
2017-07-26T10:40:33.590Z,93237.31
2017-07-26T10:43:01.534Z,93242.44
2017-07-26T10:45:29.553Z,93242.45
2017-07-26T10:47:57.429Z,93250.66
2017-07-26T10:50:25.178Z,93248.20
2017-07-26T10:52:52.867Z,93242.75
2017-07-26T10:55:20.566Z,93246.80
2017-07-26T10:57:48.366Z,93245.89
2017-07-26T11:00:16.081Z,93245.02
2017-07-26T11:02:43.870Z,93240.91
2017-07-26T11:05:11.631Z,93245.30
2017-07-26T11:07:39.539Z,93258.02
2017-07-26T11:10:07.528Z,93250.59
2017-07-26T11:12:35.249Z,93254.32
2017-07-26T11:15:03.048Z,93251.88
2017-07-26T11:17:31.656Z,93255.70
2017-07-26T11:19:59.358Z,93253.38
2017-07-26T11:22:27.247Z,93265.75
2017-07-26T11:24:55.031Z,93256.06
2017-07-26T11:27:22.810Z,93260.09
2017-07-26T11:29:51.574Z,93259.64
2017-07-26T11:32:19.378Z,93261.20
2017-07-26T11:34:47.097Z,93276.31
2017-07-26T11:37:15.936Z,93277.66
2017-07-26T11:39:43.736Z,93286.92
2017-07-26T11:42:11.454Z,93284.67
2017-07-26T11:44:39.195Z,93301.87
2017-07-26T11:47:07.640Z,93313.11
2017-07-26T11:49:36.434Z,93314.86
2017-07-26T11:52:04.246Z,93307.63
2017-07-26T11:54:32.065Z,93314.44
2017-07-26T11:56:59.817Z,93312.48
2017-07-26T11:59:27.514Z,93309.93
2017-07-26T12:01:55.334Z,93316.55
2017-07-26T12:04:23.160Z,93319.83
2017-07-26T12:06:51.431Z,93312.38
2017-07-26T12:09:19.573Z,93328.20
2017-07-26T12:11:47.384Z,93327.67
2017-07-26T12:14:15.107Z,93327.75
2017-07-26T12:16:43.012Z,93325.26
2017-07-26T12:19:10.746Z,93329.33
2017-07-26T12:21:38.457Z,93327.27
2017-07-26T12:24:06.213Z,93329.49
2017-07-26T12:26:33.992Z,93327.70
2017-07-26T12:29:01.866Z,93330.48
2017-07-26T12:31:30.491Z,93326.23
2017-07-26T12:33:58.452Z,93340.57
2017-07-26T12:36:26.351Z,93335.36
2017-07-26T12:38:54.083Z,93347.41
2017-07-26T12:41:21.910Z,93344.28
2017-07-26T12:43:49.755Z,93341.20
2017-07-26T12:46:17.478Z,93355.18
2017-07-26T12:48:46.316Z,93348.11
2017-07-26T12:51:14.905Z,93353.78
2017-07-26T12:53:43.859Z,93357.25
2017-07-26T12:56:11.798Z,93355.11
2017-07-26T12:58:39.716Z,93368.95
2017-07-26T13:01:07.455Z,93367.48
2017-07-26T13:03:35.285Z,93366.53
2017-07-26T13:06:03.004Z,93372.72
2017-07-26T13:08:30.757Z,93381.36
2017-07-26T13:10:58.445Z,93386.59
2017-07-26T13:13:26.610Z,93377.85
2017-07-26T13:15:54.574Z,93388.96
2017-07-26T13:18:22.741Z,93381.03
2017-07-26T13:20:50.562Z,93394.13
2017-07-26T13:23:18.403Z,93401.60
2017-07-26T13:25:46.162Z,93399.57
2017-07-26T13:28:13.899Z,93412.53
2017-07-26T13:30:41.658Z,93409.44
2017-07-26T13:33:09.408Z,93395.78
2017-07-26T13:35:38.412Z,93394.26
2017-07-26T13:38:07.314Z,93403.98
2017-07-26T13:40:35.076Z,93405.67
2017-07-26T13:43:02.788Z,93399.53
2017-07-26T13:45:30.561Z,93407.02
2017-07-26T13:47:58.293Z,93401.78
2017-07-26T13:50:26.096Z,93406.75
2017-07-26T13:52:54.874Z,93402.94
2017-07-26T13:55:22.589Z,93398.48
2017-07-26T13:57:50.382Z,93406.98
2017-07-26T14:00:18.147Z,93397.14
2017-07-26T14:02:45.864Z,93401.45
2017-07-26T14:05:13.823Z,93399.36
2017-07-26T14:07:41.586Z,93401.52
2017-07-26T14:10:09.851Z,93400.10
2017-07-26T14:12:37.686Z,93402.30
2017-07-26T14:15:05.545Z,93389.84
2017-07-26T14:17:33.415Z,93390.38
2017-07-26T14:20:01.222Z,93390.63
2017-07-26T14:22:29.078Z,93395.56
2017-07-26T14:24:56.841Z,93392.09
2017-07-26T14:27:24.700Z,93394.31
2017-07-26T14:29:52.601Z,93386.66
2017-07-26T14:32:20.427Z,93387.78
2017-07-26T14:34:48.220Z,93386.95
2017-07-26T14:37:16.047Z,93386.19
2017-07-26T14:39:43.794Z,93398.88
2017-07-26T14:42:12.735Z,93392.11
2017-07-26T14:44:40.663Z,93397.95
2017-07-26T14:47:08.562Z,93404.50
2017-07-26T14:49:36.335Z,93409.77
2017-07-26T14:52:04.152Z,93401.26
2017-07-26T14:54:31.882Z,93397.98
2017-07-26T14:56:59.610Z,93395.40
2017-07-26T14:59:27.594Z,93398.02
2017-07-26T15:01:55.294Z,93401.81
2017-07-26T15:04:23.160Z,93398.38
2017-07-26T15:06:50.889Z,93393.13
2017-07-26T15:09:21.110Z,93400.76
2017-07-26T15:11:48.872Z,93396.30
2017-07-26T15:14:16.619Z,93396.83
2017-07-26T15:16:44.824Z,93400.89
2017-07-26T15:19:12.602Z,93408.85
2017-07-26T15:21:40.332Z,93418.13
2017-07-26T15:24:08.110Z,93416.41
2017-07-26T15:26:35.982Z,93413.84
2017-07-26T15:29:04.224Z,93417.23
2017-07-26T15:31:32.001Z,93421.92
2017-07-26T15:33:59.773Z,93412.64
2017-07-26T15:36:27.590Z,93413.42
2017-07-26T15:38:55.309Z,93422.18
2017-07-26T15:41:23.025Z,93414.48
2017-07-26T15:43:50.780Z,93411.62
2017-07-26T15:46:18.614Z,93414.36
2017-07-26T15:48:46.364Z,93416.92
2017-07-26T15:51:14.201Z,93417.44
2017-07-26T15:53:41.925Z,93416.27
2017-07-26T15:56:09.701Z,93411.82
2017-07-26T15:58:37.473Z,93415.61
2017-07-26T16:01:05.207Z,93411.71
2017-07-26T16:03:33.166Z,93414.30
2017-07-26T16:06:03.763Z,93411.64
2017-07-26T16:08:31.598Z,93425.53
2017-07-26T16:10:59.879Z,93412.62
2017-07-26T16:13:27.631Z,93409.36
2017-07-26T16:15:55.505Z,93421.18
2017-07-26T16:18:23.219Z,93412.83
2017-07-26T16:20:50.967Z,93414.88
2017-07-26T16:23:18.783Z,93411.82
2017-07-26T16:25:46.535Z,93416.88
2017-07-26T16:28:15.948Z,93418.47
2017-07-26T16:30:43.722Z,93417.78
2017-07-26T16:33:11.620Z,93422.25
2017-07-26T16:35:39.450Z,93437.97
2017-07-26T16:38:07.167Z,93416.48
2017-07-26T16:40:35.036Z,93431.20
2017-07-26T16:43:02.859Z,93430.85
2017-07-26T16:45:30.748Z,93434.82
2017-07-26T16:47:59.760Z,93435.63
2017-07-26T16:50:27.495Z,93430.18
2017-07-26T16:52:55.303Z,93428.38
2017-07-26T16:55:23.065Z,93443.40
2017-07-26T16:57:50.851Z,93434.78
2017-07-26T17:00:18.840Z,93446.78
2017-07-26T17:02:46.669Z,93458.06
2017-07-26T17:05:14.592Z,93449.81
2017-07-26T17:07:42.310Z,93453.84
2017-07-26T17:10:10.174Z,93458.99
2017-07-26T17:12:38.035Z,93464.70
2017-07-26T17:15:05.824Z,93460.45
2017-07-26T17:17:34.123Z,93467.58
2017-07-26T17:20:01.926Z,93457.38
2017-07-26T17:22:29.702Z,93468.19
2017-07-26T17:24:57.492Z,93459.90
2017-07-26T17:27:25.467Z,93461.05
2017-07-26T17:29:53.330Z,93461.53
2017-07-26T17:32:21.156Z,93458.32
2017-07-26T17:34:48.955Z,93460.11
2017-07-26T17:37:16.806Z,93464.69
2017-07-26T17:39:44.721Z,93468.14
2017-07-26T17:42:12.573Z,93463.17
2017-07-26T17:44:41.420Z,93472.06
2017-07-26T17:47:09.270Z,93479.45
2017-07-26T17:49:39.121Z,93474.94
2017-07-26T17:52:09.181Z,93474.98
2017-07-26T17:54:37.215Z,93475.86
2017-07-26T17:57:05.273Z,93479.84
2017-07-26T17:59:33.254Z,93477.97
2017-07-26T18:02:01.344Z,93481.50
2017-07-26T18:04:29.145Z,93479.29
2017-07-26T18:06:57.964Z,93478.38
2017-07-26T18:09:25.860Z,93490.56
2017-07-26T18:11:53.997Z,93490.38
2017-07-26T18:14:21.899Z,93495.47
2017-07-26T18:16:49.744Z,93492.67
2017-07-26T18:19:17.636Z,93502.19
2017-07-26T18:21:45.546Z,93489.36
2017-07-26T18:24:13.507Z,93501.70
2017-07-26T18:26:41.459Z,93499.36
2017-07-26T18:29:09.574Z,93501.52
2017-07-26T18:31:37.657Z,93502.47
2017-07-26T18:34:06.302Z,93505.34
2017-07-26T18:36:34.555Z,93514.97
2017-07-26T18:39:02.509Z,93510.56
2017-07-26T18:41:31.893Z,93506.03
2017-07-26T18:43:59.970Z,93505.27
2017-07-26T18:46:27.886Z,93512.66
2017-07-26T18:48:55.686Z,93521.64
2017-07-26T18:51:23.553Z,93516.17
2017-07-26T18:53:51.461Z,93510.02
2017-07-26T18:56:19.470Z,93512.63
2017-07-26T18:58:48.336Z,93520.36
2017-07-26T19:01:16.177Z,93522.53
2017-07-26T19:03:43.995Z,93527.06
2017-07-26T19:06:11.813Z,93532.84
2017-07-26T19:08:39.757Z,93530.30
2017-07-26T19:11:09.159Z,93535.27
2017-07-26T19:13:38.452Z,93542.23
2017-07-26T19:16:07.064Z,93553.85
2017-07-26T19:18:35.188Z,93557.44
2017-07-26T19:21:03.319Z,93557.55
2017-07-26T19:23:31.613Z,93568.59
2017-07-26T19:25:59.585Z,93577.45
2017-07-26T19:28:27.614Z,93570.47
2017-07-26T19:30:55.675Z,93572.62
2017-07-26T19:33:23.682Z,93571.59
2017-07-26T19:35:52.594Z,93581.34
2017-07-26T19:38:21.519Z,93573.64
2017-07-26T19:40:49.353Z,93574.20
2017-07-26T19:43:17.176Z,93585.11
2017-07-26T19:45:44.997Z,93582.08
2017-07-26T19:48:12.977Z,93591.21
2017-07-26T19:50:40.781Z,93591.50
2017-07-26T19:53:08.897Z,93586.27
2017-07-26T19:55:37.000Z,93596.63
2017-07-26T19:58:05.106Z,93590.72
2017-07-26T20:00:33.252Z,93603.22
2017-07-26T20:03:01.048Z,93609.62
2017-07-26T20:05:28.959Z,93609.84
2017-07-26T20:07:56.776Z,93610.50
2017-07-26T20:10:24.688Z,93605.98
2017-07-26T20:12:53.722Z,93612.69
2017-07-26T20:15:21.999Z,93617.09
2017-07-26T20:17:49.886Z,93620.52
2017-07-26T20:20:17.675Z,93616.39
2017-07-26T20:22:45.634Z,93620.39
2017-07-26T20:25:13.456Z,93624.60
2017-07-26T20:27:41.328Z,93623.19
2017-07-26T20:30:09.081Z,93622.78
2017-07-26T20:32:36.840Z,93619.03
2017-07-26T20:35:04.652Z,93638.89
2017-07-26T20:37:33.198Z,93624.62
2017-07-26T20:40:00.904Z,93636.55
2017-07-26T20:42:28.758Z,93634.86
2017-07-26T20:44:56.553Z,93641.77
2017-07-26T20:47:24.301Z,93635.58
2017-07-26T20:49:52.284Z,93636.37
2017-07-26T20:52:20.018Z,93649.27
2017-07-26T20:54:48.865Z,93642.89
2017-07-26T20:57:16.788Z,93647.17
2017-07-26T20:59:44.642Z,93642.98
2017-07-26T21:02:12.444Z,93646.11
2017-07-26T21:04:40.206Z,93656.73
2017-07-26T21:07:07.963Z,93655.23
2017-07-26T21:09:35.798Z,93650.00
2017-07-26T21:12:03.641Z,93660.79
2017-07-26T21:14:31.448Z,93655.12
2017-07-26T21:16:59.238Z,93661.85
2017-07-26T21:19:26.998Z,93670.49
2017-07-26T21:21:54.665Z,93664.77
2017-07-26T21:24:22.439Z,93660.79
2017-07-26T21:26:50.193Z,93668.38
2017-07-26T21:29:17.926Z,93666.28
2017-07-26T21:31:45.672Z,93670.34
2017-07-26T21:34:13.490Z,93665.77
2017-07-26T21:36:41.226Z,93665.85
2017-07-26T21:39:09.973Z,93671.77
2017-07-26T21:41:37.720Z,93674.28
2017-07-26T21:44:05.445Z,93669.86
2017-07-26T21:46:33.211Z,93671.73
2017-07-26T21:49:01.295Z,93673.31
2017-07-26T21:51:29.136Z,93676.38
2017-07-26T21:53:56.858Z,93680.07
2017-07-26T21:56:24.641Z,93670.45
2017-07-26T21:58:52.503Z,93673.06
2017-07-26T22:01:20.302Z,93670.16
2017-07-26T22:03:49.106Z,93679.22
2017-07-26T22:06:16.803Z,93672.00
2017-07-26T22:08:44.573Z,93687.86
2017-07-26T22:11:12.369Z,93679.98
2017-07-26T22:13:40.185Z,93676.83
2017-07-26T22:16:07.925Z,93674.37
2017-07-26T22:18:35.886Z,93673.07
2017-07-26T22:21:04.597Z,93680.59
2017-07-26T22:23:32.481Z,93682.89
2017-07-26T22:26:00.255Z,93680.10
2017-07-26T22:28:28.006Z,93684.41
2017-07-26T22:30:55.872Z,93681.95
2017-07-26T22:33:23.684Z,93684.06
2017-07-26T22:35:52.696Z,93677.84
2017-07-26T22:38:20.900Z,93685.68
2017-07-26T22:40:49.005Z,93683.23
2017-07-26T22:43:16.714Z,93684.47
2017-07-26T22:45:44.404Z,93688.59
2017-07-26T22:48:12.223Z,93688.13
2017-07-26T22:50:39.948Z,93682.40
2017-07-26T22:53:07.742Z,93676.22
2017-07-26T22:55:35.482Z,93671.82
2017-07-26T22:58:03.315Z,93670.30
2017-07-26T23:00:32.174Z,93667.87
2017-07-26T23:03:00.066Z,93672.36
2017-07-26T23:05:28.029Z,93666.55
2017-07-26T23:07:55.841Z,93670.73
2017-07-26T23:10:23.721Z,93668.36
2017-07-26T23:12:51.519Z,93667.06
2017-07-26T23:15:19.288Z,93670.77
2017-07-26T23:17:47.043Z,93662.97
2017-07-26T23:20:14.833Z,93664.91
2017-07-26T23:22:42.606Z,93667.45
2017-07-26T23:25:10.342Z,93662.00
2017-07-26T23:27:38.045Z,93660.30
2017-07-26T23:30:05.859Z,93653.52
2017-07-26T23:32:33.637Z,93643.84
2017-07-26T23:35:01.383Z,93650.39
2017-07-26T23:37:29.160Z,93651.54
2017-07-26T23:39:56.835Z,93650.05
2017-07-26T23:42:24.574Z,93647.63
2017-07-26T23:44:52.325Z,93642.05
2017-07-26T23:47:20.180Z,93651.16
2017-07-26T23:49:47.966Z,93648.56
2017-07-26T23:52:15.807Z,93640.38
2017-07-26T23:54:43.674Z,93631.27
2017-07-26T23:57:11.994Z,93645.95
2017-07-26T23:59:39.997Z,93653.81
